Time;durP1;ratioP1;P1;durP2;ratioP2;P2;SDS_P1;SDS_P2;PMS_P1;PMS_P2;Temp;Humidity;BMP_temperature;BMP_pressure;BME280_temperature;BME280_humidity;BME280_pressure;Samples;Min_cycle;Max_cycle;Signal;HPM_P1;HPM_P2
2022/05/19 00:01:01;;;;;;;30.90;20.83;;;18.10;99.90;;;;;;5035242;28;20124;-79
2022/05/19 00:03:28;;;;;;;27.88;20.67;;;18.10;99.90;;;;;;5017472;28;20091;-79
2022/05/19 00:05:53;;;;;;;30.23;20.55;;;18.00;99.90;;;;;;5035162;28;20056;-79
2022/05/19 00:08:19;;;;;;;32.22;21.45;;;17.90;99.90;;;;;;5034710;28;20558;-80
2022/05/19 00:10:45;;;;;;;30.67;20.85;;;17.90;99.90;;;;;;5017196;28;20137;-80
2022/05/19 00:13:11;;;;;;;31.83;20.40;;;17.80;99.90;;;;;;5034878;28;20128;-79
2022/05/19 00:15:37;;;;;;;24.23;19.58;;;17.80;99.90;;;;;;5034900;28;20049;-79
2022/05/19 00:18:03;;;;;;;33.78;22.45;;;17.70;99.90;;;;;;5034881;28;20041;-79
2022/05/19 00:20:28;;;;;;;29.17;21.02;;;17.80;99.90;;;;;;5034721;28;20045;-79
2022/05/19 00:22:55;;;;;;;28.05;21.20;;;17.70;99.90;;;;;;5034671;28;20218;-79
2022/05/19 00:25:21;;;;;;;31.30;21.55;;;17.70;99.90;;;;;;5034438;28;20524;-79
2022/05/19 00:27:48;;;;;;;28.65;21.40;;;17.60;99.90;;;;;;5034568;28;20042;-79
2022/05/19 00:30:13;;;;;;;33.15;22.48;;;17.50;99.90;;;;;;5016985;28;20127;-79
2022/05/19 00:32:39;;;;;;;32.58;21.83;;;17.50;99.90;;;;;;5034517;28;20513;-79
2022/05/19 00:35:05;;;;;;;29.85;22.42;;;17.40;99.90;;;;;;5034375;28;20097;-79
2022/05/19 00:37:31;;;;;;;31.70;21.75;;;17.30;99.90;;;;;;5016727;28;20123;-79
2022/05/19 00:39:57;;;;;;;30.90;21.88;;;17.40;99.90;;;;;;5016497;28;20092;-79
2022/05/19 00:45:07;;;;;;;30.25;21.92;;;17.40;99.90;;;;;;5016767;28;20068;-78
2022/05/19 00:47:39;;;;;;;31.05;22.00;;;17.30;99.90;;;;;;5000221;28;20053;-78
2022/05/19 00:50:09;;;;;;;31.40;22.75;;;17.30;99.90;;;;;;5032464;28;20057;-78
2022/05/19 00:52:39;;;;;;;32.78;22.88;;;17.20;99.90;;;;;;5033949;28;20503;-78
2022/05/19 00:55:10;;;;;;;34.05;22.45;;;17.10;99.90;;;;;;5033797;28;20498;-78
2022/05/19 00:58:00;;;;;;;31.92;23.42;;;17.10;99.90;;;;;;5034101;28;20061;-78
2022/05/19 01:00:26;;;;;;;33.53;23.35;;;17.10;99.90;;;;;;5033591;28;20057;-77
2022/05/19 01:02:56;;;;;;;32.85;22.75;;;17.00;99.90;;;;;;5016279;28;20056;-78
2022/05/19 01:05:43;;;;;;;36.60;22.98;;;17.00;99.90;;;;;;5033993;28;20053;-78
2022/05/19 01:08:09;;;;;;;33.63;22.90;;;17.00;99.90;;;;;;5033451;28;20132;-78
2022/05/19 01:10:36;;;;;;;30.30;21.70;;;16.90;99.90;;;;;;5033875;28;20123;-77
2022/05/19 01:13:02;;;;;;;31.60;22.38;;;17.00;99.90;;;;;;5033831;28;20052;-81
2022/05/19 01:15:28;;;;;;;34.35;22.98;;;16.80;99.90;;;;;;5033854;28;20041;-78
2022/05/19 01:17:54;;;;;;;28.23;21.50;;;16.80;99.90;;;;;;5033368;28;20483;-78
2022/05/19 01:20:25;;;;;;;32.40;22.25;;;16.70;99.90;;;;;;5033461;28;20041;-78
2022/05/19 01:23:35;;;;;;;33.47;23.35;;;16.60;99.90;;;;;;5016113;28;20578;-78
2022/05/19 01:26:06;;;;;;;32.67;23.67;;;16.60;99.90;;;;;;5033387;28;20132;-78
2022/05/19 01:28:31;;;;;;;;;;;16.50;99.90;;;;;;5033684;28;20083;-78
2022/05/19 01:30:57;;;;;;;32.00;22.33;;;16.50;99.90;;;;;;5016045;28;19975;-78
2022/05/19 01:33:24;;;;;;;30.30;23.05;;;16.40;99.90;;;;;;5015761;28;20048;-78
2022/05/19 01:35:50;;;;;;;33.38;23.40;;;16.40;99.90;;;;;;5015840;28;20050;-80
2022/05/19 01:38:21;;;;;;;34.92;23.45;;;16.40;99.90;;;;;;5015817;28;20052;-80
2022/05/19 01:41:31;;;;;;;34.90;24.40;;;16.30;99.90;;;;;;5033043;28;20107;-78
2022/05/19 01:44:22;;;;;;;36.03;23.98;;;16.30;99.90;;;;;;5030787;28;20064;-82
2022/05/19 01:46:51;;;;;;;;;;;16.20;99.90;;;;;;4998256;28;20499;-78
2022/05/19 01:49:41;;;;;;;36.65;25.92;;;16.20;99.90;;;;;;5014175;28;20017;-78
2022/05/19 01:52:19;;;;;;;34.97;24.10;;;16.10;99.90;;;;;;5030917;28;20056;-78
2022/05/19 01:55:03;;;;;;;35.50;25.33;;;16.10;99.90;;;;;;5014264;28;20140;-78
2022/05/19 01:57:45;;;;;;;35.53;24.13;;;16.10;99.90;;;;;;5014632;28;20056;-81
2022/05/19 02:00:23;;;;;;;39.72;25.02;;;16.10;99.90;;;;;;5013605;28;20061;-80
2022/05/19 02:02:58;;;;;;;35.25;26.20;;;16.10;99.90;;;;;;5014307;28;20056;-80
2022/05/19 02:05:50;;;;;;;31.20;24.08;;;16.10;99.90;;;;;;5030490;28;20041;-81
2022/05/19 02:08:22;;;;;;;41.42;26.80;;;16.00;99.90;;;;;;5013816;28;20502;-78
2022/05/19 02:10:52;;;;;;;37.22;27.58;;;16.00;99.90;;;;;;5030482;28;20061;-78
2022/05/19 02:13:19;;;;;;;39.83;27.92;;;16.00;99.90;;;;;;5030586;28;20426;-78
2022/05/19 02:15:48;;;;;;;42.38;28.23;;;16.00;99.90;;;;;;5030442;28;20541;-78
2022/05/19 02:18:15;;;;;;;39.72;28.42;;;16.00;99.90;;;;;;4997633;28;20507;-77
2022/05/19 02:20:44;;;;;;;37.78;28.55;;;16.00;99.90;;;;;;5032570;28;20052;-77
2022/05/19 02:23:11;;;;;;;40.05;26.60;;;16.00;99.90;;;;;;5031394;28;20135;-77
2022/05/19 02:25:43;;;;;;;44.80;29.95;;;16.00;99.90;;;;;;5032658;28;20462;-77
2022/05/19 02:28:30;;;;;;;44.75;29.85;;;16.00;99.90;;;;;;5014914;28;20403;-77
2022/05/19 02:30:57;;;;;;;40.60;29.55;;;16.00;99.90;;;;;;5015136;28;20049;-77
2022/05/19 02:33:23;;;;;;;42.10;30.77;;;16.00;99.90;;;;;;5032379;28;20111;-78
2022/05/19 02:35:49;;;;;;;39.92;27.50;;;16.00;99.90;;;;;;5032059;28;20049;-77
2022/05/19 02:38:16;;;;;;;42.13;30.60;;;16.00;99.90;;;;;;5014924;28;20049;-77
2022/05/19 02:40:42;;;;;;;44.55;29.05;;;16.20;99.90;;;;;;5032326;28;20042;-77
2022/05/19 02:43:09;;;;;;;38.03;29.05;;;16.10;99.90;;;;;;5032304;28;20045;-78
2022/05/19 02:45:35;;;;;;;42.63;30.85;;;16.10;99.90;;;;;;5014852;28;20053;-77
2022/05/19 02:48:02;;;;;;;42.08;28.63;;;16.10;99.90;;;;;;5014497;28;20049;-77
2022/05/19 02:50:28;;;;;;;43.10;29.75;;;16.10;99.90;;;;;;5032027;28;20049;-78
2022/05/19 02:52:54;;;;;;;39.40;28.70;;;16.00;99.90;;;;;;5032794;28;20441;-77
2022/05/19 02:55:20;;;;;;;46.00;30.60;;;16.20;99.90;;;;;;5032258;28;20053;-78
2022/05/19 02:57:48;;;;;;;47.17;32.17;;;16.20;99.90;;;;;;5032269;28;20124;-77
2022/05/19 03:00:18;;;;;;;46.65;32.67;;;16.20;99.90;;;;;;5014776;28;20053;-77
2022/05/19 03:02:44;;;;;;;41.45;31.83;;;16.20;99.90;;;;;;5032024;28;20076;-78
2022/05/19 03:05:14;;;;;;;45.97;31.52;;;16.20;99.90;;;;;;5014417;28;20453;-77
2022/05/19 03:07:40;;;;;;;42.50;32.05;;;16.10;99.90;;;;;;5032023;28;20151;-77
2022/05/19 03:10:06;;;;;;;46.80;32.22;;;16.30;99.90;;;;;;4998270;28;20054;-78
2022/05/19 03:12:32;;;;;;;49.15;31.98;;;16.30;99.90;;;;;;5016100;28;20067;-77
2022/05/19 03:14:58;;;;;;;43.17;30.67;;;16.30;99.90;;;;;;5018470;28;20042;-77
2022/05/19 03:17:24;;;;;;;41.15;30.70;;;16.30;99.90;;;;;;5018636;28;20060;-77
2022/05/19 03:19:53;;;;;;;44.63;32.38;;;16.40;99.90;;;;;;5018144;28;20093;-78
2022/05/19 03:22:19;;;;;;;48.63;33.65;;;16.40;99.90;;;;;;5035955;28;20053;-78
2022/05/19 03:24:45;;;;;;;44.38;33.72;;;16.40;99.90;;;;;;5018294;28;20050;-77
2022/05/19 03:27:11;;;;;;;52.25;33.60;;;16.40;99.90;;;;;;5035795;28;20037;-77
2022/05/19 03:29:37;;;;;;;42.35;31.20;;;16.40;99.90;;;;;;5017960;28;20052;-78
2022/05/19 03:32:03;;;;;;;45.63;32.97;;;16.40;99.90;;;;;;5018072;28;20053;-83
2022/05/19 03:34:28;;;;;;;49.20;35.17;;;16.30;99.90;;;;;;5035384;28;20049;-78
2022/05/19 03:36:54;;;;;;;50.70;36.80;;;16.30;99.90;;;;;;5035695;28;20449;-78
2022/05/19 03:39:20;;;;;;;55.88;36.00;;;16.30;99.90;;;;;;5017358;28;20487;-79
2022/05/19 03:41:46;;;;;;;45.25;34.70;;;16.30;99.90;;;;;;5035266;28;20049;-78
2022/05/19 03:44:12;;;;;;;46.53;34.55;;;16.20;99.90;;;;;;5035533;28;20489;-77
2022/05/19 03:46:38;;;;;;;48.80;35.47;;;16.20;99.90;;;;;;5035335;28;20057;-78
2022/05/19 03:49:04;;;;;;;48.13;34.97;;;16.20;99.90;;;;;;5035219;28;20033;-79
2022/05/19 03:51:35;;;;;;;48.00;36.13;;;16.20;99.90;;;;;;5017619;28;20506;-77
2022/05/19 03:54:01;;;;;;;48.42;36.28;;;16.30;99.90;;;;;;5035497;28;20129;-80
2022/05/19 03:56:27;;;;;;;48.72;36.88;;;16.20;99.90;;;;;;5017897;28;20049;-77
2022/05/19 03:58:53;;;;;;;58.83;37.33;;;16.20;99.90;;;;;;5033851;28;20045;-83
2022/05/19 04:01:20;;;;;;;51.45;36.53;;;16.30;99.90;;;;;;5017740;28;20063;-77
2022/05/19 04:03:46;;;;;;;49.05;35.85;;;16.20;99.90;;;;;;5017521;28;20056;-78
2022/05/19 04:06:11;;;;;;;52.97;38.15;;;16.20;99.90;;;;;;5034658;28;20041;-77
2022/05/19 04:08:38;;;;;;;46.88;32.35;;;16.30;99.90;;;;;;5034847;28;20049;-78
2022/05/19 04:11:04;;;;;;;53.10;37.20;;;16.30;99.90;;;;;;5034155;28;20119;-78
2022/05/19 04:13:29;;;;;;;52.88;36.53;;;16.40;99.90;;;;;;5034947;28;20045;-78
2022/05/19 04:15:55;;;;;;;50.00;37.00;;;16.40;99.90;;;;;;5035439;28;20536;-77
2022/05/19 04:18:21;;;;;;;47.75;36.92;;;16.40;99.90;;;;;;5034699;28;20052;-78
2022/05/19 04:20:46;;;;;;;47.70;36.55;;;16.50;99.90;;;;;;5017084;28;20064;-78
2022/05/19 04:23:12;;;;;;;49.65;37.15;;;16.60;99.90;;;;;;5016750;28;20549;-77
2022/05/19 04:25:39;;;;;;;51.00;37.70;;;16.70;99.90;;;;;;5034368;28;20049;-77
2022/05/19 04:28:05;;;;;;;50.13;37.67;;;16.80;99.90;;;;;;5034542;28;20045;-78
2022/05/19 04:30:31;;;;;;;53.65;37.92;;;16.90;99.90;;;;;;5033646;28;20076;-78
2022/05/19 04:32:57;;;;;;;47.33;36.85;;;16.90;99.90;;;;;;5033780;28;20429;-79
2022/05/19 04:35:24;;;;;;;50.10;36.83;;;17.10;99.90;;;;;;5034679;28;20041;-78
2022/05/19 04:37:50;;;;;;;50.53;37.28;;;17.10;99.90;;;;;;5034569;28;20049;-78
2022/05/19 04:40:18;;;;;;;49.95;37.83;;;17.20;99.90;;;;;;5000818;28;20088;-81
2022/05/19 04:42:44;;;;;;;45.92;35.20;;;17.20;99.90;;;;;;5017044;28;20132;-78
2022/05/19 04:45:13;;;;;;;48.30;35.63;;;17.30;99.90;;;;;;5034292;28;20128;-78
2022/05/19 04:47:39;;;;;;;46.92;35.47;;;17.40;99.90;;;;;;5034168;28;20037;-81
2022/05/19 04:50:06;;;;;;;47.47;34.88;;;17.30;99.90;;;;;;5016442;28;20056;-81
2022/05/19 04:52:31;;;;;;;44.88;36.35;;;17.40;99.90;;;;;;5016813;28;20045;-80
2022/05/19 04:54:57;;;;;;;42.55;33.47;;;17.40;99.90;;;;;;5016727;28;20048;-81
2022/05/19 04:57:23;;;;;;;46.83;35.40;;;17.60;99.90;;;;;;5016728;28;20625;-77
2022/05/19 04:59:48;;;;;;;44.40;35.58;;;17.70;99.90;;;;;;5045213;28;20045;-79
2022/05/19 05:02:15;;;;;;;49.88;35.95;;;17.60;99.90;;;;;;5033919;28;20057;-79
2022/05/19 05:04:40;;;;;;;45.45;33.25;;;17.70;99.90;;;;;;5038294;28;20037;-79
2022/05/19 05:07:06;;;;;;;41.30;33.50;;;17.90;99.90;;;;;;5018617;28;20076;-79
2022/05/19 05:09:32;;;;;;;42.17;34.05;;;17.90;99.90;;;;;;5033044;28;20079;-80
2022/05/19 05:11:58;;;;;;;40.92;32.08;;;17.90;99.90;;;;;;5023311;28;20121;-79
2022/05/19 05:14:24;;;;;;;41.28;32.95;;;18.00;99.90;;;;;;5044177;28;20159;-80
2022/05/19 05:16:52;;;;;;;39.17;29.55;;;18.10;99.90;;;;;;5047127;28;20045;-80
2022/05/19 05:19:21;;;;;;;40.28;30.52;;;18.20;99.90;;;;;;5046488;28;20045;-79
2022/05/19 05:21:52;;;;;;;34.60;28.10;;;18.40;99.90;;;;;;5025790;28;20057;-80
2022/05/19 05:24:18;;;;;;;33.15;26.85;;;18.70;99.90;;;;;;5049032;28;20045;-80
2022/05/19 05:26:44;;;;;;;34.15;26.05;;;18.80;99.90;;;;;;5029025;28;20047;-80
2022/05/19 05:29:10;;;;;;;32.22;25.17;;;19.00;99.90;;;;;;5042834;28;20121;-80
2022/05/19 05:31:36;;;;;;;29.95;23.80;;;19.20;99.90;;;;;;5033115;28;20128;-82
2022/05/19 05:34:01;;;;;;;30.52;23.13;;;19.30;99.90;;;;;;5032970;28;20132;-80
2022/05/19 05:36:27;;;;;;;29.52;22.70;;;19.30;99.90;;;;;;5033333;28;20057;-79
2022/05/19 05:38:53;;;;;;;31.10;22.58;;;19.60;99.90;;;;;;5032547;28;20057;-80
2022/05/19 05:41:19;;;;;;;29.02;20.60;;;19.70;99.90;;;;;;5033400;28;20045;-81
2022/05/19 05:43:45;;;;;;;23.65;20.30;;;19.90;99.90;;;;;;5015660;28;20452;-80
2022/05/19 05:46:15;;;;;;;26.20;20.67;;;20.00;99.90;;;;;;5015567;28;20398;-79
2022/05/19 05:48:45;;;;;;;24.80;17.63;;;20.20;99.90;;;;;;5015463;28;20049;-79
2022/05/19 05:51:13;;;;;;;22.13;16.58;;;20.20;99.90;;;;;;5032901;28;20403;-79
2022/05/19 05:53:40;;;;;;;21.42;13.55;;;20.30;99.90;;;;;;5015175;28;20076;-80
2022/05/19 05:56:08;;;;;;;18.70;12.77;;;20.30;99.90;;;;;;5015522;28;20581;-81
2022/05/19 05:58:34;;;;;;;13.80;10.82;;;20.40;99.90;;;;;;5015502;28;20056;-80
2022/05/19 06:01:03;;;;;;;13.27;9.60;;;20.30;99.90;;;;;;5015199;28;20122;-80
2022/05/19 06:03:29;;;;;;;12.52;10.00;;;20.40;99.90;;;;;;5032917;28;20507;-80
2022/05/19 06:05:54;;;;;;;11.55;9.07;;;20.50;99.90;;;;;;5015386;28;20139;-80
2022/05/19 06:08:20;;;;;;;13.48;8.43;;;20.60;99.90;;;;;;5032645;28;20419;-82
2022/05/19 06:10:46;;;;;;;12.38;7.50;;;20.60;99.90;;;;;;5032733;28;20053;-80
2022/05/19 06:13:12;;;;;;;9.63;7.07;;;20.70;99.90;;;;;;5015142;28;20103;-79
2022/05/19 06:15:38;;;;;;;11.02;6.78;;;20.70;99.90;;;;;;5015588;28;20041;-79
2022/05/19 06:18:05;;;;;;;10.07;6.47;;;20.80;99.90;;;;;;5033123;28;20052;-80
2022/05/19 06:20:31;;;;;;;9.52;6.30;;;20.80;99.90;;;;;;5014921;28;20045;-81
2022/05/19 06:22:58;;;;;;;9.93;6.47;;;20.80;99.90;;;;;;5032892;28;20434;-80
2022/05/19 06:25:25;;;;;;;8.40;6.20;;;20.90;99.90;;;;;;5015229;28;20055;-79
2022/05/19 06:27:52;;;;;;;11.30;5.13;;;21.10;99.90;;;;;;5015160;28;20516;-81
2022/05/19 06:30:20;;;;;;;8.52;5.55;;;21.40;99.90;;;;;;5014926;28;20455;-82
2022/05/19 06:32:49;;;;;;;8.60;4.93;;;21.70;99.90;;;;;;5032774;28;20100;-80
2022/05/19 06:35:19;;;;;;;7.50;4.80;;;22.30;99.90;;;;;;5014872;28;20092;-80
2022/05/19 06:37:45;;;;;;;5.88;3.65;;;22.60;99.90;;;;;;5032478;28;20052;-80
2022/05/19 06:40:13;;;;;;;7.00;3.70;;;22.50;99.90;;;;;;5015068;28;20045;-79
2022/05/19 06:42:39;;;;;;;8.13;3.97;;;22.30;99.90;;;;;;4998818;28;20107;-79
2022/05/19 06:45:06;;;;;;;6.53;3.50;;;22.10;99.90;;;;;;5014833;28;20049;-79
2022/05/19 06:47:32;;;;;;;5.03;3.50;;;21.90;99.90;;;;;;5034078;28;20037;-81
2022/05/19 06:49:58;;;;;;;7.10;3.65;;;21.80;99.90;;;;;;5036315;28;20136;-80
2022/05/19 06:52:30;;;;;;;4.90;3.28;;;21.70;99.90;;;;;;5036710;28;20128;-77
2022/05/19 06:54:58;;;;;;;6.30;3.40;;;21.50;99.90;;;;;;5036293;28;20049;-78
2022/05/19 06:57:25;;;;;;;5.70;3.10;;;21.40;99.90;;;;;;5019206;28;20049;-79
2022/05/19 06:59:51;;;;;;;5.50;3.00;;;21.40;99.90;;;;;;5036308;28;20046;-80
2022/05/19 07:02:23;;;;;;;4.40;3.22;;;21.40;99.90;;;;;;5018740;28;20057;-78
2022/05/19 07:04:49;;;;;;;6.20;3.05;;;21.60;99.90;;;;;;5018463;28;20106;-80
2022/05/19 07:07:15;;;;;;;3.35;2.78;;;21.70;99.90;;;;;;5018497;28;20494;-80
2022/05/19 07:09:41;;;;;;;7.30;3.28;;;21.80;99.90;;;;;;5018723;28;20135;-78
2022/05/19 07:12:09;;;;;;;6.00;2.92;;;22.00;99.90;;;;;;5018627;28;20041;-78
2022/05/19 07:14:35;;;;;;;4.75;2.50;;;22.10;99.90;;;;;;5018604;28;20058;-77
2022/05/19 07:17:01;;;;;;;3.33;2.22;;;22.10;99.90;;;;;;5035824;28;20041;-80
2022/05/19 07:22:17;;;;;;;6.78;2.50;;;21.80;99.90;;;;;;5035932;28;20056;-78
2022/05/19 07:24:43;;;;;;;6.47;2.60;;;21.60;99.90;;;;;;5018309;28;20132;-77
2022/05/19 07:27:09;;;;;;;5.25;2.50;;;21.30;99.90;;;;;;5035688;28;20088;-78
2022/05/19 07:29:35;;;;;;;8.95;3.25;;;21.10;99.90;;;;;;5035597;28;20080;-77
2022/05/19 07:32:03;;;;;;;6.55;3.10;;;20.90;99.90;;;;;;5035852;28;20111;-77
2022/05/19 07:34:31;;;;;;;7.75;3.30;;;20.60;99.90;;;;;;5018288;28;20077;-80
2022/05/19 07:36:57;;;;;;;6.93;3.65;;;20.40;99.90;;;;;;5018090;28;20054;-78
2022/05/19 07:39:24;;;;;;;5.60;2.90;;;20.20;99.90;;;;;;5035456;28;20048;-78
2022/05/19 07:41:51;;;;;;;6.60;3.50;;;20.10;99.90;;;;;;5035579;28;20406;-77
2022/05/19 07:44:16;;;;;;;6.03;3.50;;;20.00;99.90;;;;;;5017307;28;20062;-78
2022/05/19 07:46:42;;;;;;;7.38;3.30;;;20.00;99.90;;;;;;5035518;28;20053;-79
2022/05/19 07:49:08;;;;;;;6.95;3.42;;;19.90;99.90;;;;;;5017976;28;20061;-78
2022/05/19 07:51:37;;;;;;;6.65;3.50;;;19.90;99.90;;;;;;5035422;28;20049;-78
2022/05/19 07:54:11;;;;;;;6.18;3.50;;;19.80;99.90;;;;;;5035280;28;20048;-78
2022/05/19 07:56:38;;;;;;;8.77;3.10;;;19.80;99.90;;;;;;5035340;28;20076;-78
2022/05/19 07:59:04;;;;;;;5.82;3.42;;;19.70;99.90;;;;;;5034995;28;20088;-78
2022/05/19 08:01:31;;;;;;;10.93;5.05;;;19.60;99.90;;;;;;5035595;28;20076;-77
2022/05/19 08:03:57;;;;;;;6.30;3.30;;;19.60;99.90;;;;;;5017520;28;20179;-79
2022/05/19 08:06:23;;;;;;;7.60;3.58;;;19.40;99.90;;;;;;5035017;28;20042;-78
2022/05/19 08:08:50;;;;;;;6.93;3.15;;;19.50;99.90;;;;;;5035004;28;20044;-78
2022/05/19 08:11:16;;;;;;;8.10;3.10;;;19.50;99.90;;;;;;5035709;28;20522;-78
2022/05/19 08:16:26;;;;;;;5.97;3.65;;;19.60;99.90;;;;;;5035819;28;20050;-77
2022/05/19 08:18:51;;;;;;;5.38;3.90;;;19.70;99.90;;;;;;5018048;28;20045;-78
2022/05/19 08:21:18;;;;;;;7.50;4.25;;;19.90;99.90;;;;;;5001719;28;20054;-79
2022/05/19 08:23:46;;;;;;;9.20;4.50;;;20.10;99.90;;;;;;5018619;28;20041;-78
2022/05/19 08:26:13;;;;;;;6.47;4.60;;;20.40;99.90;;;;;;5018775;28;20416;-78
2022/05/19 08:28:42;;;;;;;7.97;5.05;;;20.60;99.90;;;;;;5017516;28;20085;-77
2022/05/19 08:31:13;;;;;;;7.35;5.20;;;20.90;99.90;;;;;;5035856;28;20068;-78
2022/05/19 08:33:41;;;;;;;6.30;4.70;;;21.20;99.90;;;;;;5017854;28;20120;-77
2022/05/19 08:36:07;;;;;;;10.05;6.85;;;21.40;99.90;;;;;;5035229;28;20490;-78
2022/05/19 08:38:33;;;;;;;10.73;7.80;;;21.60;99.90;;;;;;5035092;28;20044;-78
2022/05/19 08:41:16;;;;;;;8.85;6.55;;;21.90;99.90;;;;;;5017651;28;20049;-78
2022/05/19 08:43:44;;;;;;;9.77;7.35;;;22.20;99.90;;;;;;5018137;28;20088;-77
2022/05/19 08:46:20;;;;;;;12.13;7.47;;;22.50;99.90;;;;;;5001198;28;20049;-77
2022/05/19 08:48:48;;;;;;;10.00;5.72;;;22.70;99.90;;;;;;5017071;28;20053;-78
2022/05/19 08:51:16;;;;;;;7.55;5.82;;;22.90;99.90;;;;;;5034395;28;20123;-78
2022/05/19 08:53:43;;;;;;;8.07;5.47;;;23.10;99.90;;;;;;5034221;28;20045;-79
2022/05/19 08:56:32;;;;;;;6.72;5.68;;;23.40;99.90;;;;;;5016942;28;20050;-78
2022/05/19 08:59:19;;;;;;;8.50;6.93;;;23.90;99.90;;;;;;5016594;28;20042;-78
2022/05/19 09:01:55;;;;;;;13.85;7.65;;;24.20;99.90;;;;;;5034181;28;20053;-78
2022/05/19 09:04:27;;;;;;;11.35;6.90;;;24.70;99.90;;;;;;5033805;28;20046;-79
2022/05/19 09:10:28;;;;;;;12.25;8.73;;;25.80;99.90;;;;;;5015563;28;20573;-78
2022/05/19 09:13:19;;;;;;;10.68;7.78;;;26.40;99.90;;;;;;5033973;28;20091;-78
2022/05/19 09:15:46;;;;;;;10.32;6.07;;;26.90;99.90;;;;;;5007956;28;20054;-79
2022/05/19 09:18:16;;;;;;;12.02;6.43;;;27.40;99.90;;;;;;5033888;28;20038;-79
2022/05/19 09:20:54;;;;;;;8.07;6.47;;;27.60;99.90;;;;;;5033698;28;20045;-79
2022/05/19 09:23:23;;;;;;;10.57;6.30;;;27.60;99.90;;;;;;5016391;28;20053;-79
2022/05/19 09:25:58;;;;;;;8.55;6.90;;;27.90;99.90;;;;;;5016329;28;20060;-79
2022/05/19 09:28:23;;;;;;;12.13;6.82;;;28.40;99.90;;;;;;5016095;28;20045;-79
2022/05/19 09:30:55;;;;;;;8.55;7.22;;;29.20;99.00;;;;;;5033531;28;20048;-79
2022/05/19 09:33:37;;;;;;;15.43;8.13;;;29.70;92.90;;;;;;5033605;28;20045;-79
2022/05/19 09:36:12;;;;;;;11.10;7.50;;;29.70;93.50;;;;;;5015896;28;20059;-78
2022/05/19 09:38:49;;;;;;;11.82;8.10;;;29.70;92.20;;;;;;5033315;28;20398;-79
2022/05/19 09:41:30;;;;;;;10.13;7.90;;;30.10;91.50;;;;;;4999566;28;20203;-79
2022/05/19 09:43:58;;;;;;;9.88;7.70;;;30.60;80.80;;;;;;5015207;28;20055;-79
2022/05/19 09:46:30;;;;;;;12.75;8.40;;;31.00;80.60;;;;;;5033138;28;20414;-79
2022/05/19 09:49:05;;;;;;;15.93;7.80;;;31.30;75.80;;;;;;5033053;28;20045;-80
2022/05/19 09:51:41;;;;;;;9.63;7.28;;;31.40;72.00;;;;;;5015815;28;20054;-79
2022/05/19 09:54:12;;;;;;;12.13;7.10;;;31.60;74.00;;;;;;5015660;28;20053;-80
2022/05/19 09:56:50;;;;;;;10.63;7.75;;;31.80;68.20;;;;;;5015435;28;20136;-79
2022/05/19 09:59:22;;;;;;;11.65;6.57;;;31.80;72.10;;;;;;5015389;28;20053;-79
2022/05/19 10:01:49;;;;;;;8.45;6.35;;;31.70;67.60;;;;;;5015460;28;20049;-79
2022/05/19 10:04:28;;;;;;;7.05;6.35;;;31.30;69.20;;;;;;5033136;28;20049;-79
2022/05/19 10:07:06;;;;;;;9.35;7.13;;;30.70;69.50;;;;;;5012200;28;20585;-79
2022/05/19 10:09:39;;;;;;;11.00;6.35;;;30.30;69.60;;;;;;5013306;28;20046;-79
2022/05/19 10:12:12;;;;;;;11.00;6.80;;;29.90;75.40;;;;;;5013385;28;20045;-79
2022/05/19 10:14:40;;;;;;;11.07;5.80;;;30.10;71.10;;;;;;5012205;28;20049;-79
2022/05/19 10:17:40;;;;;;;6.78;5.68;;;30.50;68.90;;;;;;5013522;28;20049;-79
2022/05/19 10:20:19;;;;;;;6.55;5.90;;;30.90;69.90;;;;;;5011979;28;20041;-79
2022/05/19 10:22:44;;;;;;;8.35;5.95;;;31.00;66.70;;;;;;5012332;28;20532;-79
2022/05/19 10:25:35;;;;;;;10.25;7.80;;;30.90;68.10;;;;;;5011992;28;20053;-79
2022/05/19 10:31:07;;;;;;;9.50;7.50;;;30.80;71.30;;;;;;5013049;28;20061;-79
2022/05/19 10:33:46;;;;;;;11.65;7.00;;;31.00;68.30;;;;;;5012830;28;20125;-79
2022/05/19 10:36:27;;;;;;;8.40;6.93;;;31.60;66.20;;;;;;5012801;28;20084;-79
2022/05/19 10:38:58;;;;;;;9.50;6.78;;;31.80;62.80;;;;;;5012988;28;20049;-80
2022/05/19 10:41:47;;;;;;;6.72;5.20;;;32.50;58.60;;;;;;4995993;28;20559;-79
2022/05/19 10:44:44;;;;;;;6.30;4.68;;;33.20;55.70;;;;;;5012878;28;20054;-80
2022/05/19 10:47:28;;;;;;;5.00;3.60;;;33.80;53.80;;;;;;5012537;28;20136;-79
2022/05/19 10:50:00;;;;;;;3.75;3.35;;;34.40;51.70;;;;;;4995669;28;20408;-79
2022/05/19 10:52:40;;;;;;;5.85;3.38;;;34.80;49.70;;;;;;5011490;28;20060;-80
2022/05/19 10:55:32;;;;;;;6.72;3.40;;;35.20;48.00;;;;;;5012551;28;20411;-80
2022/05/19 10:58:08;;;;;;;5.60;3.70;;;35.40;49.20;;;;;;5011479;28;20046;-80
2022/05/19 11:00:55;;;;;;;5.22;3.72;;;35.30;48.30;;;;;;5011419;28;20057;-79
2022/05/19 11:03:58;;;;;;;5.72;3.60;;;35.10;45.70;;;;;;5012498;28;20413;-80
2022/05/19 11:06:53;;;;;;;6.18;3.20;;;34.70;47.30;;;;;;5011535;28;20116;-81
2022/05/19 11:09:51;;;;;;;3.15;2.88;;;34.60;47.80;;;;;;5032102;28;20045;-80
2022/05/19 11:12:58;;;;;;;5.00;3.33;;;34.70;46.20;;;;;;5014657;28;20073;-80
2022/05/19 11:15:48;;;;;;;4.88;2.90;;;34.80;45.80;;;;;;4971339;28;20141;-80
2022/05/19 11:18:23;;;;;;;3.47;2.30;;;34.90;47.70;;;;;;4971316;28;20047;-80
2022/05/19 11:21:18;;;;;;;2.45;2.05;;;35.20;45.90;;;;;;4971103;28;20106;-80
2022/05/19 11:24:08;;;;;;;4.25;2.40;;;35.30;44.80;;;;;;4917127;29;20150;-83
2022/05/19 11:26:40;;;;;;;7.57;2.80;;;35.50;44.50;;;;;;4932767;29;20070;-80
2022/05/19 11:29:09;;;;;;;3.17;2.65;;;35.60;42.90;;;;;;4916654;29;20077;-81
2022/05/19 11:32:03;;;;;;;4.03;3.60;;;35.40;43.60;;;;;;4917012;29;20083;-80
2022/05/19 11:34:56;;;;;;;4.35;3.92;;;34.90;44.90;;;;;;4935731;29;20513;-81
2022/05/19 11:37:29;;;;;;;6.18;3.70;;;35.00;45.60;;;;;;4920685;29;20130;-80
2022/05/19 11:40:23;;;;;;;7.13;3.95;;;35.40;43.80;;;;;;4936030;29;20460;-80
2022/05/19 11:43:02;;;;;;;4.55;3.80;;;35.40;43.10;;;;;;4920534;29;20441;-79
2022/05/19 11:45:37;;;;;;;3.97;3.05;;;35.40;44.40;;;;;;4936046;28;20063;-80
2022/05/19 11:57:37;;;;;;;4.68;3.10;;;32.80;47.90;;;;;;4994394;28;20086;-80
2022/05/19 12:00:05;;;;;;;10.30;4.03;;;32.10;48.40;;;;;;5013427;28;20061;-84
2022/05/19 12:02:57;;;;;;;5.20;4.68;;;31.50;50.30;;;;;;5018578;28;20499;-81
2022/05/19 12:05:47;;;;;;;5.78;4.05;;;31.00;51.60;;;;;;5018200;28;20103;-80
2022/05/19 12:08:39;;;;;;;;;;;30.50;55.10;;;;;;5036491;28;20093;-79
2022/05/19 12:11:25;;;;;;;7.20;4.43;;;30.10;55.30;;;;;;5015896;28;19991;-80
2022/05/19 12:14:06;;;;;;;5.47;3.63;;;29.70;58.90;;;;;;5017674;28;20132;-79
2022/05/19 12:17:00;;;;;;;5.03;4.10;;;29.30;60.60;;;;;;5003010;28;20056;-80
2022/05/19 12:19:37;;;;;;;8.48;4.47;;;29.00;60.20;;;;;;5035143;28;20508;-84
2022/05/19 12:22:24;;;;;;;7.93;3.90;;;28.70;60.90;;;;;;5035077;28;20456;-79
2022/05/19 12:25:05;;;;;;;8.07;3.65;;;28.30;68.10;;;;;;5017080;28;20555;-79
2022/05/19 12:27:37;;;;;;;5.80;4.25;;;28.00;71.60;;;;;;5017064;28;20037;-79
2022/05/19 12:33:13;;;;;;;7.40;4.17;;;27.50;71.40;;;;;;5034783;28;20410;-79
2022/05/19 12:35:39;;;;;;;5.90;4.18;;;27.20;73.70;;;;;;5034634;28;20045;-79
2022/05/19 12:38:31;;;;;;;4.97;4.45;;;27.10;74.00;;;;;;5034577;28;20372;-79
2022/05/19 12:41:01;;;;;;;6.93;3.40;;;26.90;74.20;;;;;;5034683;28;20392;-78
2022/05/19 12:43:27;;;;;;;;;;;26.60;81.00;;;;;;5001198;28;20095;-79
2022/05/19 12:45:58;;;;;;;9.15;3.00;;;26.40;86.90;;;;;;5033570;28;19925;-79
2022/05/19 12:48:44;;;;;;;5.10;2.60;;;26.20;90.00;;;;;;5034423;28;20241;-79
2022/05/19 12:51:18;;;;;;;8.15;3.00;;;25.90;93.70;;;;;;5034032;28;20057;-79
2022/05/19 12:53:48;;;;;;;7.45;2.85;;;25.60;99.90;;;;;;5034323;28;20041;-80
2022/05/19 12:56:55;;;;;;;6.43;2.90;;;25.20;99.90;;;;;;5034297;28;20410;-79
2022/05/19 12:59:33;;;;;;;6.93;3.22;;;24.70;99.90;;;;;;5033928;28;20498;-78
2022/05/19 13:02:02;;;;;;;7.43;3.00;;;24.20;99.90;;;;;;5034276;28;20099;-80
2022/05/19 13:04:31;;;;;;;33.53;6.00;;;23.80;99.90;;;;;;5000045;28;20045;-84
2022/05/19 13:07:14;;;;;;;31.67;7.20;;;23.60;99.90;;;;;;5016575;28;20119;-80
2022/05/19 13:09:41;;;;;;;11.48;6.25;;;22.60;99.90;;;;;;5033812;28;20111;-81
2022/05/19 13:12:15;;;;;;;13.80;7.55;;;21.40;99.90;;;;;;5033712;28;20049;-80
2022/05/19 13:14:47;;;;;;;13.88;7.40;;;20.70;99.90;;;;;;5034007;28;20379;-80
2022/05/19 13:17:23;;;;;;;18.38;8.85;;;20.30;99.90;;;;;;4999980;28;20467;-81
2022/05/19 13:19:48;;;;;;;21.60;9.00;;;19.90;99.90;;;;;;5033760;28;20057;-80
2022/05/19 13:22:24;;;;;;;27.58;10.18;;;19.40;99.90;;;;;;5033738;28;20430;-79
2022/05/19 13:24:50;;;;;;;20.50;10.48;;;19.00;99.90;;;;;;5033900;28;20116;-80
2022/05/19 13:30:46;;;;;;;26.83;13.05;;;18.40;99.90;;;;;;5014906;28;20707;-81